sensor_id;sensor_type;location;lat;lon;timestamp;P1;durP1;ratioP1;P2;durP2;ratioP2
21611;SDS011;47005;52.292;13.452;2023-04-24T00:01:27;5.70;;;4.27;;
21611;SDS011;47005;52.292;13.452;2023-04-24T00:03:54;5.90;;;4.20;;
21611;SDS011;47005;52.292;13.452;2023-04-24T00:06:24;6.17;;;4.37;;
21611;SDS011;47005;52.292;13.452;2023-04-24T00:09:01;5.93;;;4.33;;
21611;SDS011;47005;52.292;13.452;2023-04-24T00:11:28;6.53;;;4.07;;
21611;SDS011;47005;52.292;13.452;2023-04-24T00:13:54;7.47;;;4.27;;
21611;SDS011;47005;52.292;13.452;2023-04-24T00:16:21;6.33;;;4.40;;
21611;SDS011;47005;52.292;13.452;2023-04-24T00:18:47;5.30;;;3.77;;
21611;SDS011;47005;52.292;13.452;2023-04-24T00:21:13;4.83;;;3.60;;
21611;SDS011;47005;52.292;13.452;2023-04-24T00:23:42;7.77;;;3.97;;
21611;SDS011;47005;52.292;13.452;2023-04-24T00:26:08;6.57;;;4.63;;
21611;SDS011;47005;52.292;13.452;2023-04-24T00:28:34;4.77;;;3.90;;
21611;SDS011;47005;52.292;13.452;2023-04-24T00:31:00;8.30;;;4.10;;
21611;SDS011;47005;52.292;13.452;2023-04-24T00:33:26;6.60;;;4.57;;
21611;SDS011;47005;52.292;13.452;2023-04-24T00:35:51;6.73;;;4.23;;
21611;SDS011;47005;52.292;13.452;2023-04-24T00:38:17;6.10;;;4.23;;
21611;SDS011;47005;52.292;13.452;2023-04-24T00:40:43;5.63;;;4.50;;
21611;SDS011;47005;52.292;13.452;2023-04-24T00:43:09;7.07;;;4.37;;
21611;SDS011;47005;52.292;13.452;2023-04-24T00:45:35;7.87;;;4.63;;
21611;SDS011;47005;52.292;13.452;2023-04-24T00:48:04;5.80;;;4.30;;
21611;SDS011;47005;52.292;13.452;2023-04-24T00:50:30;5.27;;;4.00;;
21611;SDS011;47005;52.292;13.452;2023-04-24T00:52:56;6.17;;;4.50;;
21611;SDS011;47005;52.292;13.452;2023-04-24T00:55:22;10.93;;;4.70;;
21611;SDS011;47005;52.292;13.452;2023-04-24T00:57:49;7.53;;;4.93;;
21611;SDS011;47005;52.292;13.452;2023-04-24T01:00:15;6.37;;;4.10;;
21611;SDS011;47005;52.292;13.452;2023-04-24T01:02:41;8.17;;;4.80;;
21611;SDS011;47005;52.292;13.452;2023-04-24T01:05:10;7.60;;;4.97;;
21611;SDS011;47005;52.292;13.452;2023-04-24T01:07:37;6.13;;;4.23;;
21611;SDS011;47005;52.292;13.452;2023-04-24T01:10:04;5.10;;;3.83;;
21611;SDS011;47005;52.292;13.452;2023-04-24T01:12:31;8.77;;;4.33;;
21611;SDS011;47005;52.292;13.452;2023-04-24T01:14:57;5.97;;;4.33;;
21611;SDS011;47005;52.292;13.452;2023-04-24T01:17:23;6.77;;;4.17;;
21611;SDS011;47005;52.292;13.452;2023-04-24T01:19:48;5.70;;;4.53;;
21611;SDS011;47005;52.292;13.452;2023-04-24T01:22:14;6.33;;;3.87;;
21611;SDS011;47005;52.292;13.452;2023-04-24T01:24:41;6.37;;;3.80;;
21611;SDS011;47005;52.292;13.452;2023-04-24T01:27:08;7.67;;;4.90;;
21611;SDS011;47005;52.292;13.452;2023-04-24T01:29:35;6.37;;;4.17;;
21611;SDS011;47005;52.292;13.452;2023-04-24T01:32:00;6.47;;;4.13;;
21611;SDS011;47005;52.292;13.452;2023-04-24T01:34:27;5.83;;;4.30;;
21611;SDS011;47005;52.292;13.452;2023-04-24T01:36:53;7.17;;;4.40;;
21611;SDS011;47005;52.292;13.452;2023-04-24T01:39:19;5.63;;;3.97;;
21611;SDS011;47005;52.292;13.452;2023-04-24T01:41:45;6.63;;;4.50;;
21611;SDS011;47005;52.292;13.452;2023-04-24T01:44:11;5.73;;;4.73;;
21611;SDS011;47005;52.292;13.452;2023-04-24T01:46:37;6.20;;;4.10;;
21611;SDS011;47005;52.292;13.452;2023-04-24T01:49:03;10.10;;;4.87;;
21611;SDS011;47005;52.292;13.452;2023-04-24T01:51:28;5.57;;;4.37;;
21611;SDS011;47005;52.292;13.452;2023-04-24T01:53:55;6.73;;;4.70;;
21611;SDS011;47005;52.292;13.452;2023-04-24T01:56:21;6.47;;;4.47;;
21611;SDS011;47005;52.292;13.452;2023-04-24T01:58:47;7.00;;;5.17;;
21611;SDS011;47005;52.292;13.452;2023-04-24T02:01:18;7.07;;;4.63;;
21611;SDS011;47005;52.292;13.452;2023-04-24T02:03:45;7.93;;;3.73;;
21611;SDS011;47005;52.292;13.452;2023-04-24T02:06:10;5.63;;;4.03;;
21611;SDS011;47005;52.292;13.452;2023-04-24T02:08:36;6.93;;;3.27;;
21611;SDS011;47005;52.292;13.452;2023-04-24T02:11:02;5.70;;;3.87;;
21611;SDS011;47005;52.292;13.452;2023-04-24T02:13:28;5.53;;;3.70;;
21611;SDS011;47005;52.292;13.452;2023-04-24T02:15:54;6.00;;;4.30;;
21611;SDS011;47005;52.292;13.452;2023-04-24T02:18:19;5.30;;;3.80;;
21611;SDS011;47005;52.292;13.452;2023-04-24T02:20:45;5.13;;;4.00;;
21611;SDS011;47005;52.292;13.452;2023-04-24T02:23:11;6.20;;;4.03;;
21611;SDS011;47005;52.292;13.452;2023-04-24T02:25:38;5.43;;;3.87;;
21611;SDS011;47005;52.292;13.452;2023-04-24T02:28:03;5.27;;;3.70;;
21611;SDS011;47005;52.292;13.452;2023-04-24T02:30:29;6.90;;;4.47;;
21611;SDS011;47005;52.292;13.452;2023-04-24T02:32:55;6.93;;;4.43;;
21611;SDS011;47005;52.292;13.452;2023-04-24T02:35:21;5.97;;;4.37;;
21611;SDS011;47005;52.292;13.452;2023-04-24T02:37:46;6.07;;;4.37;;
21611;SDS011;47005;52.292;13.452;2023-04-24T02:40:12;5.90;;;4.13;;
21611;SDS011;47005;52.292;13.452;2023-04-24T02:42:38;5.83;;;4.13;;
21611;SDS011;47005;52.292;13.452;2023-04-24T02:45:04;6.17;;;4.17;;
21611;SDS011;47005;52.292;13.452;2023-04-24T02:47:30;6.07;;;4.57;;
21611;SDS011;47005;52.292;13.452;2023-04-24T02:49:56;6.00;;;4.03;;
21611;SDS011;47005;52.292;13.452;2023-04-24T02:52:21;8.83;;;5.00;;
21611;SDS011;47005;52.292;13.452;2023-04-24T02:54:47;6.00;;;4.53;;
21611;SDS011;47005;52.292;13.452;2023-04-24T02:57:12;12.40;;;4.70;;
21611;SDS011;47005;52.292;13.452;2023-04-24T02:59:38;6.13;;;4.47;;
21611;SDS011;47005;52.292;13.452;2023-04-24T03:02:04;6.13;;;4.43;;
21611;SDS011;47005;52.292;13.452;2023-04-24T03:04:30;7.77;;;4.40;;
21611;SDS011;47005;52.292;13.452;2023-04-24T03:06:57;5.80;;;4.47;;
21611;SDS011;47005;52.292;13.452;2023-04-24T03:09:22;5.70;;;4.00;;
21611;SDS011;47005;52.292;13.452;2023-04-24T03:11:48;7.13;;;4.77;;
21611;SDS011;47005;52.292;13.452;2023-04-24T03:14:14;6.03;;;3.63;;
21611;SDS011;47005;52.292;13.452;2023-04-24T03:16:41;7.73;;;5.40;;
21611;SDS011;47005;52.292;13.452;2023-04-24T03:19:06;10.30;;;5.13;;
21611;SDS011;47005;52.292;13.452;2023-04-24T03:21:32;7.60;;;4.17;;
21611;SDS011;47005;52.292;13.452;2023-04-24T03:23:58;8.10;;;4.37;;
21611;SDS011;47005;52.292;13.452;2023-04-24T03:26:24;6.57;;;4.80;;
21611;SDS011;47005;52.292;13.452;2023-04-24T03:28:50;5.97;;;4.70;;
21611;SDS011;47005;52.292;13.452;2023-04-24T03:31:15;7.33;;;5.10;;
21611;SDS011;47005;52.292;13.452;2023-04-24T03:33:41;6.87;;;4.83;;
21611;SDS011;47005;52.292;13.452;2023-04-24T03:36:07;8.53;;;4.30;;
21611;SDS011;47005;52.292;13.452;2023-04-24T03:38:33;8.23;;;4.53;;
21611;SDS011;47005;52.292;13.452;2023-04-24T03:40:58;6.60;;;4.63;;
21611;SDS011;47005;52.292;13.452;2023-04-24T03:43:24;5.33;;;4.33;;
21611;SDS011;47005;52.292;13.452;2023-04-24T03:45:50;6.20;;;4.93;;
21611;SDS011;47005;52.292;13.452;2023-04-24T03:48:16;7.87;;;4.90;;
21611;SDS011;47005;52.292;13.452;2023-04-24T03:50:41;6.63;;;4.57;;
21611;SDS011;47005;52.292;13.452;2023-04-24T03:53:07;5.83;;;4.23;;
21611;SDS011;47005;52.292;13.452;2023-04-24T03:55:33;6.07;;;4.37;;
21611;SDS011;47005;52.292;13.452;2023-04-24T03:57:59;6.07;;;4.30;;
21611;SDS011;47005;52.292;13.452;2023-04-24T04:00:24;5.43;;;4.53;;
21611;SDS011;47005;52.292;13.452;2023-04-24T04:02:51;5.90;;;4.33;;
21611;SDS011;47005;52.292;13.452;2023-04-24T04:05:16;5.70;;;4.07;;
21611;SDS011;47005;52.292;13.452;2023-04-24T04:07:42;9.63;;;5.20;;
21611;SDS011;47005;52.292;13.452;2023-04-24T04:10:08;7.97;;;5.03;;
21611;SDS011;47005;52.292;13.452;2023-04-24T04:12:34;7.83;;;4.27;;
21611;SDS011;47005;52.292;13.452;2023-04-24T04:14:59;5.07;;;4.07;;
21611;SDS011;47005;52.292;13.452;2023-04-24T04:17:25;5.37;;;4.00;;
21611;SDS011;47005;52.292;13.452;2023-04-24T04:19:51;5.23;;;3.73;;
21611;SDS011;47005;52.292;13.452;2023-04-24T04:22:16;6.37;;;4.33;;
21611;SDS011;47005;52.292;13.452;2023-04-24T04:24:42;7.37;;;4.30;;
21611;SDS011;47005;52.292;13.452;2023-04-24T04:27:07;5.83;;;3.63;;
21611;SDS011;47005;52.292;13.452;2023-04-24T04:29:33;5.17;;;3.70;;
21611;SDS011;47005;52.292;13.452;2023-04-24T04:31:59;6.60;;;3.97;;
21611;SDS011;47005;52.292;13.452;2023-04-24T04:34:26;7.60;;;4.47;;
21611;SDS011;47005;52.292;13.452;2023-04-24T04:36:52;5.60;;;3.70;;
21611;SDS011;47005;52.292;13.452;2023-04-24T04:39:17;5.03;;;3.50;;
21611;SDS011;47005;52.292;13.452;2023-04-24T04:41:43;5.43;;;3.33;;
21611;SDS011;47005;52.292;13.452;2023-04-24T04:44:11;5.63;;;3.83;;
21611;SDS011;47005;52.292;13.452;2023-04-24T04:46:37;4.83;;;3.30;;
21611;SDS011;47005;52.292;13.452;2023-04-24T04:49:03;4.90;;;3.77;;
21611;SDS011;47005;52.292;13.452;2023-04-24T04:51:29;5.33;;;3.13;;
21611;SDS011;47005;52.292;13.452;2023-04-24T04:53:56;5.83;;;3.20;;
21611;SDS011;47005;52.292;13.452;2023-04-24T04:56:21;3.97;;;2.67;;
21611;SDS011;47005;52.292;13.452;2023-04-24T04:58:47;5.17;;;3.40;;
21611;SDS011;47005;52.292;13.452;2023-04-24T05:01:13;5.83;;;3.57;;
21611;SDS011;47005;52.292;13.452;2023-04-24T05:03:38;5.27;;;2.73;;
21611;SDS011;47005;52.292;13.452;2023-04-24T05:06:04;6.53;;;3.00;;
21611;SDS011;47005;52.292;13.452;2023-04-24T05:08:31;4.97;;;2.93;;
21611;SDS011;47005;52.292;13.452;2023-04-24T05:10:56;4.50;;;2.73;;
21611;SDS011;47005;52.292;13.452;2023-04-24T05:13:22;3.33;;;2.30;;
21611;SDS011;47005;52.292;13.452;2023-04-24T05:15:47;5.93;;;2.40;;
21611;SDS011;47005;52.292;13.452;2023-04-24T05:18:13;4.57;;;2.67;;
21611;SDS011;47005;52.292;13.452;2023-04-24T05:20:40;6.37;;;2.70;;
21611;SDS011;47005;52.292;13.452;2023-04-24T05:23:08;6.00;;;2.87;;
21611;SDS011;47005;52.292;13.452;2023-04-24T05:25:33;2.97;;;2.10;;
21611;SDS011;47005;52.292;13.452;2023-04-24T05:28:00;4.10;;;2.20;;
21611;SDS011;47005;52.292;13.452;2023-04-24T05:30:26;3.37;;;1.93;;
21611;SDS011;47005;52.292;13.452;2023-04-24T05:32:52;4.80;;;2.23;;
21611;SDS011;47005;52.292;13.452;2023-04-24T05:35:18;2.83;;;2.07;;
21611;SDS011;47005;52.292;13.452;2023-04-24T05:37:43;3.43;;;2.20;;
21611;SDS011;47005;52.292;13.452;2023-04-24T05:40:09;3.17;;;1.53;;
21611;SDS011;47005;52.292;13.452;2023-04-24T05:42:36;3.30;;;1.63;;
21611;SDS011;47005;52.292;13.452;2023-04-24T05:45:01;6.73;;;1.73;;
21611;SDS011;47005;52.292;13.452;2023-04-24T05:47:27;2.65;;;1.77;;
21611;SDS011;47005;52.292;13.452;2023-04-24T05:49:53;2.13;;;1.43;;
21611;SDS011;47005;52.292;13.452;2023-04-24T05:52:19;3.03;;;2.00;;
21611;SDS011;47005;52.292;13.452;2023-04-24T05:54:45;2.53;;;1.60;;
21611;SDS011;47005;52.292;13.452;2023-04-24T05:57:10;7.50;;;1.77;;
21611;SDS011;47005;52.292;13.452;2023-04-24T05:59:36;2.90;;;1.53;;
21611;SDS011;47005;52.292;13.452;2023-04-24T06:02:06;3.70;;;1.60;;
21611;SDS011;47005;52.292;13.452;2023-04-24T06:04:32;1.80;;;1.27;;
21611;SDS011;47005;52.292;13.452;2023-04-24T06:06:58;2.00;;;1.23;;
21611;SDS011;47005;52.292;13.452;2023-04-24T06:09:25;1.97;;;1.20;;
21611;SDS011;47005;52.292;13.452;2023-04-24T06:11:51;2.22;;;1.27;;
21611;SDS011;47005;52.292;13.452;2023-04-24T06:14:19;2.75;;;1.30;;
21611;SDS011;47005;52.292;13.452;2023-04-24T06:16:46;2.23;;;1.40;;
21611;SDS011;47005;52.292;13.452;2023-04-24T06:19:11;1.80;;;1.20;;
21611;SDS011;47005;52.292;13.452;2023-04-24T06:21:37;2.43;;;1.03;;
21611;SDS011;47005;52.292;13.452;2023-04-24T06:24:02;2.47;;;1.17;;
21611;SDS011;47005;52.292;13.452;2023-04-24T06:26:29;3.00;;;1.20;;
21611;SDS011;47005;52.292;13.452;2023-04-24T06:28:55;2.30;;;1.17;;
21611;SDS011;47005;52.292;13.452;2023-04-24T06:31:20;1.85;;;1.10;;
21611;SDS011;47005;52.292;13.452;2023-04-24T06:33:47;2.88;;;1.25;;
21611;SDS011;47005;52.292;13.452;2023-04-24T06:36:13;1.95;;;1.20;;
21611;SDS011;47005;52.292;13.452;2023-04-24T06:38:39;1.83;;;1.20;;
21611;SDS011;47005;52.292;13.452;2023-04-24T06:41:05;2.50;;;1.20;;
21611;SDS011;47005;52.292;13.452;2023-04-24T06:43:31;2.58;;;1.17;;
21611;SDS011;47005;52.292;13.452;2023-04-24T06:45:57;1.17;;;0.80;;
21611;SDS011;47005;52.292;13.452;2023-04-24T06:48:24;1.67;;;1.00;;
21611;SDS011;47005;52.292;13.452;2023-04-24T06:50:50;1.17;;;0.90;;
21611;SDS011;47005;52.292;13.452;2023-04-24T06:53:16;1.77;;;1.08;;
21611;SDS011;47005;52.292;13.452;2023-04-24T06:55:42;2.42;;;1.30;;
21611;SDS011;47005;52.292;13.452;2023-04-24T06:58:10;2.42;;;1.10;;
21611;SDS011;47005;52.292;13.452;2023-04-24T07:00:36;1.50;;;0.73;;
21611;SDS011;47005;52.292;13.452;2023-04-24T07:03:02;1.23;;;0.73;;
21611;SDS011;47005;52.292;13.452;2023-04-24T07:05:30;1.20;;;0.80;;
21611;SDS011;47005;52.292;13.452;2023-04-24T07:07:56;1.83;;;0.90;;
21611;SDS011;47005;52.292;13.452;2023-04-24T07:10:23;1.63;;;1.02;;
21611;SDS011;47005;52.292;13.452;2023-04-24T07:12:49;2.80;;;1.30;;
21611;SDS011;47005;52.292;13.452;2023-04-24T07:15:15;1.08;;;0.82;;
21611;SDS011;47005;52.292;13.452;2023-04-24T07:17:41;1.95;;;0.80;;
21611;SDS011;47005;52.292;13.452;2023-04-24T07:20:10;1.02;;;0.80;;
21611;SDS011;47005;52.292;13.452;2023-04-24T07:22:39;2.17;;;1.20;;
21611;SDS011;47005;52.292;13.452;2023-04-24T07:25:05;1.23;;;0.70;;
21611;SDS011;47005;52.292;13.452;2023-04-24T07:27:31;1.63;;;0.80;;
21611;SDS011;47005;52.292;13.452;2023-04-24T07:29:57;1.45;;;1.05;;
21611;SDS011;47005;52.292;13.452;2023-04-24T07:32:23;1.80;;;0.95;;
21611;SDS011;47005;52.292;13.452;2023-04-24T07:34:49;2.05;;;1.00;;
21611;SDS011;47005;52.292;13.452;2023-04-24T07:37:14;1.05;;;0.70;;
21611;SDS011;47005;52.292;13.452;2023-04-24T07:39:40;1.52;;;0.82;;
21611;SDS011;47005;52.292;13.452;2023-04-24T07:42:06;1.23;;;0.70;;
21611;SDS011;47005;52.292;13.452;2023-04-24T07:44:31;1.35;;;0.80;;
21611;SDS011;47005;52.292;13.452;2023-04-24T07:46:57;1.08;;;0.60;;
21611;SDS011;47005;52.292;13.452;2023-04-24T07:49:23;4.05;;;0.88;;
21611;SDS011;47005;52.292;13.452;2023-04-24T07:51:49;1.65;;;0.77;;
21611;SDS011;47005;52.292;13.452;2023-04-24T07:54:17;0.63;;;0.50;;
21611;SDS011;47005;52.292;13.452;2023-04-24T07:56:43;1.27;;;0.80;;
21611;SDS011;47005;52.292;13.452;2023-04-24T07:59:10;1.45;;;0.77;;
21611;SDS011;47005;52.292;13.452;2023-04-24T08:01:36;1.02;;;0.70;;
21611;SDS011;47005;52.292;13.452;2023-04-24T08:04:01;0.70;;;0.50;;
21611;SDS011;47005;52.292;13.452;2023-04-24T08:06:27;1.30;;;0.80;;
21611;SDS011;47005;52.292;13.452;2023-04-24T08:08:55;0.75;;;0.65;;
21611;SDS011;47005;52.292;13.452;2023-04-24T08:11:21;3.03;;;0.80;;
21611;SDS011;47005;52.292;13.452;2023-04-24T08:13:47;2.08;;;0.80;;
21611;SDS011;47005;52.292;13.452;2023-04-24T08:16:13;2.95;;;1.00;;
21611;SDS011;47005;52.292;13.452;2023-04-24T08:18:38;3.47;;;0.88;;
21611;SDS011;47005;52.292;13.452;2023-04-24T08:21:04;3.42;;;1.10;;
21611;SDS011;47005;52.292;13.452;2023-04-24T08:23:30;1.52;;;0.80;;
21611;SDS011;47005;52.292;13.452;2023-04-24T08:25:55;1.45;;;1.13;;
21611;SDS011;47005;52.292;13.452;2023-04-24T08:28:22;1.33;;;0.90;;
21611;SDS011;47005;52.292;13.452;2023-04-24T08:30:48;1.58;;;0.90;;
21611;SDS011;47005;52.292;13.452;2023-04-24T08:33:19;1.58;;;0.93;;
21611;SDS011;47005;52.292;13.452;2023-04-24T08:35:48;1.77;;;0.95;;
21611;SDS011;47005;52.292;13.452;2023-04-24T08:38:15;1.50;;;1.02;;
21611;SDS011;47005;52.292;13.452;2023-04-24T08:40:41;1.88;;;0.85;;
21611;SDS011;47005;52.292;13.452;2023-04-24T08:43:06;1.10;;;1.00;;
21611;SDS011;47005;52.292;13.452;2023-04-24T08:45:33;4.15;;;1.17;;
21611;SDS011;47005;52.292;13.452;2023-04-24T08:47:58;2.15;;;1.10;;
21611;SDS011;47005;52.292;13.452;2023-04-24T08:50:25;1.02;;;0.65;;
21611;SDS011;47005;52.292;13.452;2023-04-24T08:52:51;2.33;;;0.93;;
21611;SDS011;47005;52.292;13.452;2023-04-24T08:55:22;2.80;;;0.73;;
21611;SDS011;47005;52.292;13.452;2023-04-24T08:57:50;2.17;;;1.00;;
21611;SDS011;47005;52.292;13.452;2023-04-24T09:00:21;1.77;;;0.77;;
21611;SDS011;47005;52.292;13.452;2023-04-24T09:02:48;2.15;;;0.75;;
21611;SDS011;47005;52.292;13.452;2023-04-24T09:05:16;2.58;;;1.20;;
21611;SDS011;47005;52.292;13.452;2023-04-24T09:07:44;1.15;;;0.73;;
21611;SDS011;47005;52.292;13.452;2023-04-24T09:10:14;1.40;;;0.70;;
21611;SDS011;47005;52.292;13.452;2023-04-24T09:12:40;0.90;;;0.63;;
21611;SDS011;47005;52.292;13.452;2023-04-24T09:15:07;1.33;;;0.85;;
21611;SDS011;47005;52.292;13.452;2023-04-24T09:17:33;1.55;;;1.00;;
21611;SDS011;47005;52.292;13.452;2023-04-24T09:20:00;1.30;;;0.95;;
21611;SDS011;47005;52.292;13.452;2023-04-24T09:22:29;1.05;;;0.70;;
21611;SDS011;47005;52.292;13.452;2023-04-24T09:25:05;2.65;;;1.25;;
21611;SDS011;47005;52.292;13.452;2023-04-24T09:27:32;1.48;;;0.90;;
21611;SDS011;47005;52.292;13.452;2023-04-24T09:29:59;1.15;;;0.73;;
21611;SDS011;47005;52.292;13.452;2023-04-24T09:32:25;1.55;;;0.90;;
21611;SDS011;47005;52.292;13.452;2023-04-24T09:35:05;1.42;;;0.77;;
21611;SDS011;47005;52.292;13.452;2023-04-24T09:37:34;5.10;;;0.90;;
21611;SDS011;47005;52.292;13.452;2023-04-24T09:40:34;2.15;;;0.75;;
21611;SDS011;47005;52.292;13.452;2023-04-24T09:42:53;2.38;;;0.88;;
21611;SDS011;47005;52.292;13.452;2023-04-24T09:45:21;1.42;;;0.68;;
21611;SDS011;47005;52.292;13.452;2023-04-24T09:47:52;1.33;;;0.80;;
21611;SDS011;47005;52.292;13.452;2023-04-24T09:50:19;1.40;;;0.85;;
21611;SDS011;47005;52.292;13.452;2023-04-24T09:52:59;1.85;;;0.98;;
21611;SDS011;47005;52.292;13.452;2023-04-24T09:55:28;2.65;;;0.80;;
21611;SDS011;47005;52.292;13.452;2023-04-24T09:57:55;2.25;;;0.90;;
21611;SDS011;47005;52.292;13.452;2023-04-24T10:00:22;3.65;;;0.93;;
21611;SDS011;47005;52.292;13.452;2023-04-24T10:02:59;1.25;;;0.80;;
21611;SDS011;47005;52.292;13.452;2023-04-24T10:07:57;1.90;;;1.00;;
21611;SDS011;47005;52.292;13.452;2023-04-24T10:10:25;1.48;;;0.70;;
21611;SDS011;47005;52.292;13.452;2023-04-24T10:12:51;1.00;;;0.80;;
21611;SDS011;47005;52.292;13.452;2023-04-24T10:15:18;1.70;;;0.98;;
21611;SDS011;47005;52.292;13.452;2023-04-24T10:17:49;2.70;;;0.88;;
21611;SDS011;47005;52.292;13.452;2023-04-24T10:20:19;4.72;;;1.00;;
21611;SDS011;47005;52.292;13.452;2023-04-24T10:22:49;1.30;;;0.88;;
21611;SDS011;47005;52.292;13.452;2023-04-24T10:25:21;2.17;;;0.98;;
21611;SDS011;47005;52.292;13.452;2023-04-24T10:27:48;1.83;;;1.00;;
21611;SDS011;47005;52.292;13.452;2023-04-24T10:30:16;2.20;;;0.80;;
21611;SDS011;47005;52.292;13.452;2023-04-24T10:32:43;2.38;;;1.10;;
21611;SDS011;47005;52.292;13.452;2023-04-24T10:35:10;2.17;;;0.73;;
21611;SDS011;47005;52.292;13.452;2023-04-24T10:37:50;1.00;;;0.90;;
21611;SDS011;47005;52.292;13.452;2023-04-24T10:40:30;1.50;;;1.15;;
21611;SDS011;47005;52.292;13.452;2023-04-24T10:42:59;3.50;;;0.93;;
21611;SDS011;47005;52.292;13.452;2023-04-24T10:45:27;0.77;;;0.70;;
21611;SDS011;47005;52.292;13.452;2023-04-24T10:47:56;2.45;;;0.75;;
21611;SDS011;47005;52.292;13.452;2023-04-24T10:50:24;1.13;;;0.88;;
21611;SDS011;47005;52.292;13.452;2023-04-24T10:52:51;1.48;;;0.88;;
21611;SDS011;47005;52.292;13.452;2023-04-24T10:58:45;1.80;;;0.77;;
21611;SDS011;47005;52.292;13.452;2023-04-24T11:01:31;1.50;;;1.00;;
21611;SDS011;47005;52.292;13.452;2023-04-24T11:04:01;2.92;;;0.88;;
21611;SDS011;47005;52.292;13.452;2023-04-24T11:06:29;0.98;;;0.88;;
21611;SDS011;47005;52.292;13.452;2023-04-24T11:08:59;1.13;;;0.80;;
21611;SDS011;47005;52.292;13.452;2023-04-24T11:11:31;0.73;;;0.68;;
21611;SDS011;47005;52.292;13.452;2023-04-24T11:19:00;1.55;;;0.90;;
21611;SDS011;47005;52.292;13.452;2023-04-24T11:21:46;1.55;;;0.93;;
21611;SDS011;47005;52.292;13.452;2023-04-24T11:29:49;1.95;;;0.93;;
21611;SDS011;47005;52.292;13.452;2023-04-24T11:35:03;1.55;;;1.02;;
21611;SDS011;47005;52.292;13.452;2023-04-24T11:37:34;3.95;;;1.45;;
21611;SDS011;47005;52.292;13.452;2023-04-24T11:40:01;1.30;;;0.90;;
21611;SDS011;47005;52.292;13.452;2023-04-24T11:42:29;2.47;;;0.95;;
21611;SDS011;47005;52.292;13.452;2023-04-24T11:45:02;0.85;;;0.65;;
21611;SDS011;47005;52.292;13.452;2023-04-24T11:47:33;3.03;;;0.95;;
21611;SDS011;47005;52.292;13.452;2023-04-24T11:49:59;2.40;;;1.00;;
21611;SDS011;47005;52.292;13.452;2023-04-24T11:52:26;1.33;;;0.90;;
21611;SDS011;47005;52.292;13.452;2023-04-24T11:54:52;1.10;;;0.77;;
21611;SDS011;47005;52.292;13.452;2023-04-24T11:57:22;0.80;;;0.80;;
21611;SDS011;47005;52.292;13.452;2023-04-24T11:59:49;5.40;;;0.90;;
21611;SDS011;47005;52.292;13.452;2023-04-24T12:02:22;0.65;;;0.65;;
21611;SDS011;47005;52.292;13.452;2023-04-24T12:04:48;1.17;;;0.80;;
21611;SDS011;47005;52.292;13.452;2023-04-24T12:07:14;2.47;;;0.70;;
21611;SDS011;47005;52.292;13.452;2023-04-24T12:09:55;1.55;;;1.00;;
21611;SDS011;47005;52.292;13.452;2023-04-24T12:12:25;4.65;;;0.80;;
21611;SDS011;47005;52.292;13.452;2023-04-24T12:14:55;1.48;;;0.80;;
21611;SDS011;47005;52.292;13.452;2023-04-24T12:17:26;6.93;;;0.85;;
21611;SDS011;47005;52.292;13.452;2023-04-24T12:19:57;0.40;;;0.40;;
21611;SDS011;47005;52.292;13.452;2023-04-24T12:22:42;3.45;;;0.88;;
21611;SDS011;47005;52.292;13.452;2023-04-24T12:25:09;1.08;;;0.77;;
21611;SDS011;47005;52.292;13.452;2023-04-24T12:27:36;0.77;;;0.50;;
21611;SDS011;47005;52.292;13.452;2023-04-24T12:30:03;1.33;;;0.90;;
21611;SDS011;47005;52.292;13.452;2023-04-24T12:32:30;0.90;;;0.73;;
21611;SDS011;47005;52.292;13.452;2023-04-24T12:34:57;0.80;;;0.70;;
21611;SDS011;47005;52.292;13.452;2023-04-24T12:37:26;2.78;;;0.68;;
21611;SDS011;47005;52.292;13.452;2023-04-24T12:40:02;1.85;;;0.88;;
21611;SDS011;47005;52.292;13.452;2023-04-24T12:42:31;3.15;;;0.80;;
21611;SDS011;47005;52.292;13.452;2023-04-24T12:44:58;1.15;;;0.77;;
21611;SDS011;47005;52.292;13.452;2023-04-24T12:47:25;1.30;;;0.80;;
21611;SDS011;47005;52.292;13.452;2023-04-24T12:49:52;0.90;;;0.60;;
21611;SDS011;47005;52.292;13.452;2023-04-24T12:52:21;1.00;;;0.70;;
21611;SDS011;47005;52.292;13.452;2023-04-24T12:54:48;0.70;;;0.68;;
21611;SDS011;47005;52.292;13.452;2023-04-24T12:57:18;1.10;;;0.90;;
21611;SDS011;47005;52.292;13.452;2023-04-24T12:59:44;1.63;;;0.85;;
21611;SDS011;47005;52.292;13.452;2023-04-24T13:02:10;1.83;;;0.70;;
21611;SDS011;47005;52.292;13.452;2023-04-24T13:04:36;1.15;;;0.80;;
21611;SDS011;47005;52.292;13.452;2023-04-24T13:07:02;1.70;;;0.85;;
21611;SDS011;47005;52.292;13.452;2023-04-24T13:09:28;5.40;;;0.68;;
21611;SDS011;47005;52.292;13.452;2023-04-24T13:11:55;1.15;;;0.77;;
21611;SDS011;47005;52.292;13.452;2023-04-24T13:14:22;0.88;;;0.52;;
21611;SDS011;47005;52.292;13.452;2023-04-24T13:16:48;2.90;;;1.00;;
21611;SDS011;47005;52.292;13.452;2023-04-24T13:19:14;1.27;;;0.70;;
21611;SDS011;47005;52.292;13.452;2023-04-24T13:21:40;1.05;;;0.70;;
21611;SDS011;47005;52.292;13.452;2023-04-24T13:24:07;2.25;;;1.00;;
21611;SDS011;47005;52.292;13.452;2023-04-24T13:26:34;1.60;;;0.95;;
21611;SDS011;47005;52.292;13.452;2023-04-24T13:29:00;1.17;;;0.80;;
21611;SDS011;47005;52.292;13.452;2023-04-24T13:31:26;4.00;;;0.77;;
21611;SDS011;47005;52.292;13.452;2023-04-24T13:33:51;1.60;;;0.80;;
21611;SDS011;47005;52.292;13.452;2023-04-24T13:36:17;1.70;;;0.82;;
21611;SDS011;47005;52.292;13.452;2023-04-24T13:38:46;0.60;;;0.60;;
21611;SDS011;47005;52.292;13.452;2023-04-24T13:41:11;2.58;;;0.80;;
21611;SDS011;47005;52.292;13.452;2023-04-24T13:43:37;0.93;;;0.80;;
21611;SDS011;47005;52.292;13.452;2023-04-24T13:46:03;1.45;;;0.90;;
21611;SDS011;47005;52.292;13.452;2023-04-24T13:48:29;1.55;;;0.90;;
21611;SDS011;47005;52.292;13.452;2023-04-24T13:50:55;1.00;;;0.68;;
21611;SDS011;47005;52.292;13.452;2023-04-24T13:53:21;0.80;;;0.70;;
21611;SDS011;47005;52.292;13.452;2023-04-24T13:55:46;0.70;;;0.70;;
21611;SDS011;47005;52.292;13.452;2023-04-24T13:58:12;1.70;;;0.82;;
21611;SDS011;47005;52.292;13.452;2023-04-24T14:00:38;2.55;;;0.88;;
21611;SDS011;47005;52.292;13.452;2023-04-24T14:03:04;1.55;;;0.88;;
21611;SDS011;47005;52.292;13.452;2023-04-24T14:05:30;1.50;;;0.68;;
21611;SDS011;47005;52.292;13.452;2023-04-24T14:07:55;1.25;;;0.90;;
21611;SDS011;47005;52.292;13.452;2023-04-24T14:10:21;0.60;;;0.60;;
21611;SDS011;47005;52.292;13.452;2023-04-24T14:12:47;1.33;;;0.93;;
21611;SDS011;47005;52.292;13.452;2023-04-24T14:15:13;3.13;;;1.00;;
21611;SDS011;47005;52.292;13.452;2023-04-24T14:17:39;1.45;;;1.10;;
21611;SDS011;47005;52.292;13.452;2023-04-24T14:20:05;1.77;;;0.80;;
21611;SDS011;47005;52.292;13.452;2023-04-24T14:22:31;1.35;;;0.80;;
21611;SDS011;47005;52.292;13.452;2023-04-24T14:24:57;0.82;;;0.80;;
21611;SDS011;47005;52.292;13.452;2023-04-24T14:27:24;2.53;;;0.80;;
21611;SDS011;47005;52.292;13.452;2023-04-24T14:29:50;3.47;;;0.70;;
21611;SDS011;47005;52.292;13.452;2023-04-24T14:32:15;1.73;;;1.10;;
21611;SDS011;47005;52.292;13.452;2023-04-24T14:34:41;1.33;;;0.93;;
21611;SDS011;47005;52.292;13.452;2023-04-24T14:37:07;1.67;;;1.10;;
21611;SDS011;47005;52.292;13.452;2023-04-24T14:39:33;1.08;;;0.80;;
21611;SDS011;47005;52.292;13.452;2023-04-24T14:41:59;1.10;;;0.98;;
21611;SDS011;47005;52.292;13.452;2023-04-24T14:44:26;1.20;;;0.80;;
21611;SDS011;47005;52.292;13.452;2023-04-24T14:46:52;1.80;;;0.75;;
21611;SDS011;47005;52.292;13.452;2023-04-24T14:49:18;1.77;;;1.02;;
21611;SDS011;47005;52.292;13.452;2023-04-24T14:51:44;1.42;;;1.00;;